sensor_id;sensor_type;location;lat;lon;timestamp;pressure;altitude;pressure_sealevel;temperature;humidity
59315;BME280;46521;50.160;20.802;2023-02-13T00:14:56;101670.52;;;-0.04;78.70
59315;BME280;46521;50.160;20.802;2023-02-13T00:24:59;101664.43;;;-0.03;78.86
59315;BME280;46521;50.160;20.802;2023-02-13T00:35:00;101655.60;;;0.01;78.79
59315;BME280;46521;50.160;20.802;2023-02-13T00:45:02;101660.70;;;0.04;79.03
59315;BME280;46521;50.160;20.802;2023-02-13T00:55:03;101645.09;;;0.04;79.07
59315;BME280;46521;50.160;20.802;2023-02-13T01:05:05;101639.05;;;0.04;79.04
59315;BME280;46521;50.160;20.802;2023-02-13T01:15:07;101616.48;;;0.04;78.98
59315;BME280;46521;50.160;20.802;2023-02-13T01:25:09;101618.19;;;0.05;79.26
59315;BME280;46521;50.160;20.802;2023-02-13T01:35:12;101603.37;;;0.07;79.43
59315;BME280;46521;50.160;20.802;2023-02-13T01:45:28;101598.16;;;0.07;79.55
59315;BME280;46521;50.160;20.802;2023-02-13T01:55:30;101585.94;;;0.09;79.64
59315;BME280;46521;50.160;20.802;2023-02-13T02:05:33;101581.50;;;0.13;79.83
59315;BME280;46521;50.160;20.802;2023-02-13T02:15:37;101588.28;;;0.17;79.74
59315;BME280;46521;50.160;20.802;2023-02-13T02:46:37;101580.10;;;0.28;79.95
59315;BME280;46521;50.160;20.802;2023-02-13T02:56:40;101566.20;;;0.29;80.03
59315;BME280;46521;50.160;20.802;2023-02-13T03:06:53;101553.23;;;0.27;79.99
59315;BME280;46521;50.160;20.802;2023-02-13T03:16:57;101559.17;;;0.31;80.33
59315;BME280;46521;50.160;20.802;2023-02-13T03:27:33;101566.76;;;0.37;80.45
59315;BME280;46521;50.160;20.802;2023-02-13T03:37:59;101564.05;;;0.40;80.50
59315;BME280;46521;50.160;20.802;2023-02-13T03:48:04;101579.34;;;0.49;80.68
59315;BME280;46521;50.160;20.802;2023-02-13T03:58:13;101573.91;;;0.56;80.67
59315;BME280;46521;50.160;20.802;2023-02-13T04:08:34;101577.23;;;0.59;80.70
59315;BME280;46521;50.160;20.802;2023-02-13T04:18:37;101567.58;;;0.63;80.87
59315;BME280;46521;50.160;20.802;2023-02-13T04:28:39;101559.66;;;0.66;80.93
59315;BME280;46521;50.160;20.802;2023-02-13T04:38:41;101561.22;;;0.70;81.22
59315;BME280;46521;50.160;20.802;2023-02-13T04:48:43;101554.13;;;0.74;81.16
59315;BME280;46521;50.160;20.802;2023-02-13T04:58:45;101568.02;;;0.74;81.25
59315;BME280;46521;50.160;20.802;2023-02-13T05:08:46;101574.07;;;0.75;81.36
59315;BME280;46521;50.160;20.802;2023-02-13T05:18:47;101573.28;;;0.73;81.76
59315;BME280;46521;50.160;20.802;2023-02-13T05:28:49;101578.44;;;0.74;81.68
59315;BME280;46521;50.160;20.802;2023-02-13T05:39:09;101568.13;;;0.71;82.10
59315;BME280;46521;50.160;20.802;2023-02-13T05:49:11;101566.42;;;0.70;82.23
59315;BME280;46521;50.160;20.802;2023-02-13T05:59:15;101580.34;;;0.69;82.54
59315;BME280;46521;50.160;20.802;2023-02-13T06:09:17;101594.18;;;0.71;82.74
59315;BME280;46521;50.160;20.802;2023-02-13T06:19:18;101589.86;;;0.70;82.65
59315;BME280;46521;50.160;20.802;2023-02-13T06:29:20;101596.61;;;0.76;82.93
59315;BME280;46521;50.160;20.802;2023-02-13T06:39:21;101589.58;;;0.78;82.78
59315;BME280;46521;50.160;20.802;2023-02-13T06:49:23;101591.06;;;0.85;83.11
59315;BME280;46521;50.160;20.802;2023-02-13T06:59:24;101606.35;;;0.94;83.08
59315;BME280;46521;50.160;20.802;2023-02-13T07:09:26;101603.31;;;1.05;83.22
59315;BME280;46521;50.160;20.802;2023-02-13T07:19:27;101595.83;;;1.19;83.44
59315;BME280;46521;50.160;20.802;2023-02-13T07:29:28;101609.23;;;1.32;83.62
59315;BME280;46521;50.160;20.802;2023-02-13T07:39:30;101600.12;;;1.42;83.82
59315;BME280;46521;50.160;20.802;2023-02-13T07:49:31;101605.71;;;1.55;83.60
59315;BME280;46521;50.160;20.802;2023-02-13T07:59:33;101608.08;;;1.61;83.43
59315;BME280;46521;50.160;20.802;2023-02-13T08:09:34;101606.70;;;1.73;83.31
59315;BME280;46521;50.160;20.802;2023-02-13T08:19:54;101612.13;;;1.89;83.71
59315;BME280;46521;50.160;20.802;2023-02-13T08:29:56;101615.42;;;1.94;83.28
59315;BME280;46521;50.160;20.802;2023-02-13T08:39:58;101599.64;;;1.97;83.95
59315;BME280;46521;50.160;20.802;2023-02-13T08:49:59;101598.52;;;2.03;83.97
59315;BME280;46521;50.160;20.802;2023-02-13T09:00:01;101584.30;;;2.10;84.18
59315;BME280;46521;50.160;20.802;2023-02-13T09:10:03;101586.19;;;2.27;83.93
59315;BME280;46521;50.160;20.802;2023-02-13T09:20:06;101591.23;;;2.51;84.33
59315;BME280;46521;50.160;20.802;2023-02-13T09:30:08;101585.83;;;2.75;83.84
59315;BME280;46521;50.160;20.802;2023-02-13T09:40:17;101585.41;;;2.84;83.74
59315;BME280;46521;50.160;20.802;2023-02-13T09:50:26;101582.13;;;2.98;84.27
59315;BME280;46521;50.160;20.802;2023-02-13T10:00:38;101561.22;;;3.17;84.29
59315;BME280;46521;50.160;20.802;2023-02-13T10:21:19;101535.33;;;3.82;83.87
59315;BME280;46521;50.160;20.802;2023-02-13T10:31:23;101517.37;;;4.09;83.27
59315;BME280;46521;50.160;20.802;2023-02-13T10:42:11;101506.97;;;4.08;83.12
59315;BME280;46521;50.160;20.802;2023-02-13T10:52:15;101497.61;;;4.20;83.21
59315;BME280;46521;50.160;20.802;2023-02-13T11:02:25;101490.09;;;4.29;82.90
59315;BME280;46521;50.160;20.802;2023-02-13T11:12:32;101490.81;;;4.49;83.50
59315;BME280;46521;50.160;20.802;2023-02-13T11:22:37;101483.03;;;4.63;82.67
59315;BME280;46521;50.160;20.802;2023-02-13T11:32:40;101476.75;;;4.98;82.72
59315;BME280;46521;50.160;20.802;2023-02-13T11:42:41;101484.02;;;5.09;82.06
59315;BME280;46521;50.160;20.802;2023-02-13T11:52:53;101477.50;;;5.00;81.67
59315;BME280;46521;50.160;20.802;2023-02-13T12:02:55;101479.48;;;4.80;81.62
59315;BME280;46521;50.160;20.802;2023-02-13T12:13:46;101479.41;;;4.66;81.40
59315;BME280;46521;50.160;20.802;2023-02-13T13:04:46;101452.82;;;4.08;82.78
59315;BME280;46521;50.160;20.802;2023-02-13T13:28:42;101430.13;;;4.25;82.63
59315;BME280;46521;50.160;20.802;2023-02-13T13:38:54;101444.23;;;4.38;82.44
59315;BME280;46521;50.160;20.802;2023-02-13T14:09:39;101421.33;;;4.26;82.42
59315;BME280;46521;50.160;20.802;2023-02-13T14:19:47;101399.70;;;4.38;82.78
59315;BME280;46521;50.160;20.802;2023-02-13T14:29:52;101377.05;;;4.37;82.71
59315;BME280;46521;50.160;20.802;2023-02-13T14:50:31;101379.59;;;4.07;83.23
59315;BME280;46521;50.160;20.802;2023-02-13T15:00:42;101382.95;;;3.93;83.09
59315;BME280;46521;50.160;20.802;2023-02-13T15:10:45;101382.09;;;3.76;83.29
59315;BME280;46521;50.160;20.802;2023-02-13T15:20:47;101361.97;;;3.61;83.65
59315;BME280;46521;50.160;20.802;2023-02-13T15:41:23;101362.17;;;3.40;84.10
59315;BME280;46521;50.160;20.802;2023-02-13T15:51:27;101362.64;;;3.31;84.44
59315;BME280;46521;50.160;20.802;2023-02-13T16:01:30;101364.73;;;3.24;84.36
59315;BME280;46521;50.160;20.802;2023-02-13T16:11:36;101386.80;;;3.19;84.09
59315;BME280;46521;50.160;20.802;2023-02-13T16:21:39;101392.48;;;3.10;84.56
59315;BME280;46521;50.160;20.802;2023-02-13T16:31:41;101388.55;;;3.01;84.08
59315;BME280;46521;50.160;20.802;2023-02-13T16:41:42;101364.80;;;2.88;84.32
59315;BME280;46521;50.160;20.802;2023-02-13T17:12:17;101354.25;;;2.55;83.52
59315;BME280;46521;50.160;20.802;2023-02-13T17:22:29;101355.53;;;2.46;84.01
59315;BME280;46521;50.160;20.802;2023-02-13T17:32:32;101358.36;;;2.41;83.65
59315;BME280;46521;50.160;20.802;2023-02-13T17:42:34;101357.67;;;2.38;84.17
59315;BME280;46521;50.160;20.802;2023-02-13T17:52:37;101372.58;;;2.36;83.49
59315;BME280;46521;50.160;20.802;2023-02-13T18:02:39;101376.38;;;2.28;83.96
59315;BME280;46521;50.160;20.802;2023-02-13T18:12:43;101386.20;;;2.23;83.93
59315;BME280;46521;50.160;20.802;2023-02-13T18:22:45;101396.78;;;2.20;83.38
59315;BME280;46521;50.160;20.802;2023-02-13T18:32:51;101415.06;;;2.20;83.11
59315;BME280;46521;50.160;20.802;2023-02-13T18:42:56;101412.17;;;2.26;83.43
59315;BME280;46521;50.160;20.802;2023-02-13T18:52:58;101434.69;;;2.29;83.38
59315;BME280;46521;50.160;20.802;2023-02-13T19:03:00;101446.73;;;2.31;82.37
59315;BME280;46521;50.160;20.802;2023-02-13T19:13:02;101451.19;;;2.29;82.56
59315;BME280;46521;50.160;20.802;2023-02-13T19:23:03;101451.95;;;2.31;82.74
59315;BME280;46521;50.160;20.802;2023-02-13T19:33:05;101427.55;;;2.32;82.75
59315;BME280;46521;50.160;20.802;2023-02-13T19:43:07;101438.13;;;2.29;83.04
59315;BME280;46521;50.160;20.802;2023-02-13T19:53:08;101447.88;;;2.26;82.46
59315;BME280;46521;50.160;20.802;2023-02-13T20:03:10;101462.67;;;2.25;83.18
59315;BME280;46521;50.160;20.802;2023-02-13T20:13:12;101478.55;;;2.21;82.69
59315;BME280;46521;50.160;20.802;2023-02-13T20:23:14;101481.30;;;2.18;82.72
59315;BME280;46521;50.160;20.802;2023-02-13T20:33:17;101465.70;;;2.16;83.37
59315;BME280;46521;50.160;20.802;2023-02-13T20:43:19;101465.07;;;2.11;82.94
59315;BME280;46521;50.160;20.802;2023-02-13T20:53:21;101433.89;;;2.08;83.33
59315;BME280;46521;50.160;20.802;2023-02-13T21:03:23;101440.15;;;2.04;82.83
59315;BME280;46521;50.160;20.802;2023-02-13T21:13:24;101448.98;;;2.01;83.09
59315;BME280;46521;50.160;20.802;2023-02-13T21:23:26;101443.97;;;1.96;83.69
59315;BME280;46521;50.160;20.802;2023-02-13T21:33:27;101442.27;;;1.95;83.64
59315;BME280;46521;50.160;20.802;2023-02-13T21:43:29;101441.49;;;1.93;83.37
59315;BME280;46521;50.160;20.802;2023-02-13T21:53:30;101443.34;;;1.91;83.78
59315;BME280;46521;50.160;20.802;2023-02-13T22:03:32;101456.31;;;1.93;83.41
59315;BME280;46521;50.160;20.802;2023-02-13T22:13:34;101457.02;;;1.96;83.06
59315;BME280;46521;50.160;20.802;2023-02-13T22:23:36;101437.67;;;2.01;82.81
59315;BME280;46521;50.160;20.802;2023-02-13T22:33:37;101441.16;;;2.01;82.92
59315;BME280;46521;50.160;20.802;2023-02-13T22:43:39;101433.46;;;1.98;82.98
59315;BME280;46521;50.160;20.802;2023-02-13T22:53:42;101419.72;;;1.94;83.01
59315;BME280;46521;50.160;20.802;2023-02-13T23:03:44;101412.02;;;1.91;82.45
59315;BME280;46521;50.160;20.802;2023-02-13T23:13:46;101407.78;;;1.89;82.81
59315;BME280;46521;50.160;20.802;2023-02-13T23:23:47;101401.86;;;1.85;82.74
59315;BME280;46521;50.160;20.802;2023-02-13T23:33:49;101378.66;;;1.79;83.01
59315;BME280;46521;50.160;20.802;2023-02-13T23:43:51;101379.56;;;1.78;82.72
